Time;durP1;ratioP1;P1;durP2;ratioP2;P2;SDS_P1;SDS_P2;PMS_P1;PMS_P2;Temp;Humidity;BMP_temperature;BMP_pressure;BME280_temperature;BME280_humidity;BME280_pressure;Samples;Min_cycle;Max_cycle;Signal;HPM_P1;HPM_P2
2021/09/20 00:01:01;;;;;;;0.10;0.10;;;10.90;99.90;;;;;;5014747;28;20110;-91
2021/09/20 00:03:29;;;;;;;0.00;0.00;;;10.90;99.90;;;;;;5001180;28;20034;-91
2021/09/20 00:05:56;;;;;;;0.08;0.08;;;10.90;99.90;;;;;;5002143;28;20041;-91
2021/09/20 00:08:22;;;;;;;0.10;0.10;;;10.90;99.90;;;;;;5003924;28;20029;-91
2021/09/20 00:10:50;;;;;;;0.00;0.00;;;10.90;99.90;;;;;;5005791;28;20553;-91
2021/09/20 00:13:17;;;;;;;0.00;0.00;;;10.90;99.90;;;;;;5006853;28;20038;-91
2021/09/20 00:15:44;;;;;;;0.00;0.00;;;10.90;99.90;;;;;;5021367;28;20038;-91
2021/09/20 00:18:11;;;;;;;0.10;0.10;;;10.90;99.90;;;;;;5038143;28;20033;-91
2021/09/20 00:20:38;;;;;;;0.22;0.20;;;11.00;99.90;;;;;;5021745;28;20060;-91
2021/09/20 00:23:04;;;;;;;2.78;0.10;;;11.00;99.90;;;;;;5021969;28;20048;-91
2021/09/20 00:25:31;;;;;;;0.10;0.10;;;11.00;99.90;;;;;;5021753;28;20040;-91
2021/09/20 00:27:58;;;;;;;0.10;0.10;;;11.00;99.90;;;;;;5005027;28;20061;-91
2021/09/20 00:30:25;;;;;;;0.10;0.10;;;11.00;99.90;;;;;;5037559;28;20048;-91
2021/09/20 00:32:51;;;;;;;0.03;0.03;;;11.00;99.90;;;;;;5005429;28;20438;-91
2021/09/20 00:35:18;;;;;;;0.00;0.00;;;11.00;99.90;;;;;;5021171;28;20048;-91
2021/09/20 00:37:45;;;;;;;0.10;0.10;;;11.00;99.90;;;;;;5005457;28;20136;-91
2021/09/20 00:40:12;;;;;;;0.00;0.00;;;11.10;99.90;;;;;;5020681;28;20053;-91
2021/09/20 00:42:39;;;;;;;0.00;0.00;;;11.10;99.90;;;;;;5053890;28;20064;-91
2021/09/20 00:45:07;;;;;;;0.00;0.00;;;11.10;99.90;;;;;;5020835;28;20084;-91
2021/09/20 00:47:34;;;;;;;0.05;0.05;;;11.10;99.90;;;;;;5054115;28;20105;-92
2021/09/20 00:50:00;;;;;;;0.00;0.00;;;11.20;99.90;;;;;;5037041;28;20042;-91
2021/09/20 00:52:27;;;;;;;0.03;0.03;;;11.20;99.90;;;;;;5020945;28;20076;-91
2021/09/20 00:54:54;;;;;;;0.00;0.00;;;11.20;99.90;;;;;;5004848;28;20053;-91
2021/09/20 00:57:22;;;;;;;0.00;0.00;;;11.20;99.90;;;;;;5004754;28;20033;-91
2021/09/20 00:59:48;;;;;;;0.10;0.10;;;11.20;99.90;;;;;;5005359;28;20072;-92
2021/09/20 01:02:15;;;;;;;0.10;0.10;;;11.30;99.90;;;;;;5004621;28;20503;-91
2021/09/20 01:04:42;;;;;;;0.38;0.10;;;11.30;99.90;;;;;;5021259;28;20134;-91
2021/09/20 01:07:09;;;;;;;0.10;0.10;;;11.30;99.90;;;;;;5004811;28;20073;-91
2021/09/20 01:09:40;;;;;;;0.08;0.08;;;11.30;99.90;;;;;;5037308;28;20037;-92
2021/09/20 01:12:11;;;;;;;0.00;0.00;;;11.40;99.90;;;;;;5021003;28;20573;-91
2021/09/20 01:14:38;;;;;;;0.00;0.00;;;11.40;99.90;;;;;;5053637;28;20048;-92
2021/09/20 01:17:06;;;;;;;0.00;0.00;;;11.50;99.90;;;;;;5020364;28;20041;-91
2021/09/20 01:19:33;;;;;;;0.00;0.00;;;11.50;99.90;;;;;;5052911;28;20038;-91
2021/09/20 01:22:08;;;;;;;0.10;0.10;;;11.50;99.90;;;;;;5020750;28;20059;-91
2021/09/20 01:24:34;;;;;;;0.00;0.00;;;11.50;99.90;;;;;;5036870;28;20038;-92
2021/09/20 01:27:03;;;;;;;0.00;0.00;;;11.50;99.90;;;;;;5004029;28;20075;-91
2021/09/20 01:29:31;;;;;;;0.00;0.00;;;11.60;99.90;;;;;;5053033;28;20080;-91
2021/09/20 01:31:58;;;;;;;0.10;0.10;;;11.60;99.90;;;;;;5021003;28;20041;-91
2021/09/20 01:34:25;;;;;;;0.00;0.00;;;11.60;99.90;;;;;;5005011;28;20052;-91
2021/09/20 01:36:53;;;;;;;0.03;0.03;;;11.70;99.90;;;;;;5020523;28;20045;-91
2021/09/20 01:39:25;;;;;;;0.00;0.00;;;11.70;99.90;;;;;;5019787;28;20057;-91
2021/09/20 01:41:54;;;;;;;0.10;0.10;;;11.70;99.90;;;;;;5036656;28;20048;-92
2021/09/20 01:44:21;;;;;;;0.10;0.10;;;11.70;99.90;;;;;;5019952;28;20139;-91
2021/09/20 01:46:49;;;;;;;0.10;0.10;;;11.70;99.90;;;;;;5036151;28;20077;-92
2021/09/20 01:49:16;;;;;;;0.00;0.00;;;11.70;99.90;;;;;;5020140;28;20037;-91
2021/09/20 01:51:44;;;;;;;0.00;0.00;;;11.80;99.90;;;;;;5020024;28;20509;-92
2021/09/20 01:54:11;;;;;;;0.00;0.00;;;11.80;99.90;;;;;;5036305;28;20041;-91
2021/09/20 01:56:38;;;;;;;0.63;0.22;;;11.80;99.90;;;;;;5019979;28;20045;-92
2021/09/20 01:59:05;;;;;;;0.00;0.00;;;11.80;99.90;;;;;;5035297;28;20531;-91
2021/09/20 02:01:32;;;;;;;0.00;0.00;;;11.80;99.90;;;;;;5004062;28;20120;-92
2021/09/20 02:03:59;;;;;;;0.08;0.08;;;11.80;99.90;;;;;;5003463;28;20029;-92
2021/09/20 02:06:26;;;;;;;0.10;0.10;;;11.90;99.90;;;;;;5019370;28;20080;-92
2021/09/20 02:08:54;;;;;;;0.10;0.10;;;11.90;99.90;;;;;;5036020;28;20037;-92
2021/09/20 02:11:23;;;;;;;0.00;0.00;;;11.90;99.90;;;;;;5003251;28;20042;-92
2021/09/20 02:13:52;;;;;;;0.00;0.00;;;11.90;99.90;;;;;;5036254;28;20191;-92
2021/09/20 02:16:19;;;;;;;0.10;0.10;;;11.90;99.90;;;;;;5035451;28;20052;-91
2021/09/20 02:18:46;;;;;;;0.00;0.00;;;11.90;99.90;;;;;;5035464;28;20041;-92
2021/09/20 02:21:16;;;;;;;0.10;0.10;;;11.90;99.90;;;;;;5002921;28;20473;-91
2021/09/20 02:23:43;;;;;;;0.00;0.00;;;12.00;99.90;;;;;;5004345;28;20037;-91
2021/09/20 02:26:10;;;;;;;0.03;0.03;;;12.00;99.90;;;;;;5035204;28;20559;-90
2021/09/20 02:28:37;;;;;;;0.00;0.00;;;12.00;99.90;;;;;;5035586;28;20041;-91
2021/09/20 02:31:08;;;;;;;0.00;0.00;;;12.00;99.90;;;;;;5019203;28;20038;-92
2021/09/20 02:33:37;;;;;;;0.00;0.00;;;12.00;99.90;;;;;;5003305;28;20049;-92
2021/09/20 02:36:05;;;;;;;0.05;0.05;;;12.00;99.90;;;;;;5035305;28;20034;-92
2021/09/20 02:38:33;;;;;;;0.10;0.10;;;12.00;99.90;;;;;;4998192;28;20140;-91
2021/09/20 02:41:00;;;;;;;0.10;0.10;;;12.00;99.90;;;;;;4999499;28;20112;-91
2021/09/20 02:43:26;;;;;;;0.00;0.00;;;12.00;99.90;;;;;;5015583;28;20064;-91
2021/09/20 02:45:53;;;;;;;0.00;0.00;;;12.10;99.90;;;;;;4983515;28;20125;-91
2021/09/20 02:48:20;;;;;;;0.30;0.10;;;12.00;99.90;;;;;;4998936;28;20487;-92
2021/09/20 02:50:47;;;;;;;0.03;0.03;;;12.10;99.90;;;;;;4999663;28;20394;-93
2021/09/20 02:53:14;;;;;;;0.03;0.03;;;12.10;99.90;;;;;;4999375;28;20042;-91
2021/09/20 02:55:40;;;;;;;0.00;0.00;;;12.10;99.90;;;;;;5015624;28;20128;-91
2021/09/20 02:58:07;;;;;;;0.00;0.00;;;12.10;99.90;;;;;;5031387;28;20033;-92
2021/09/20 03:00:34;;;;;;;0.00;0.00;;;12.10;99.90;;;;;;5015344;28;20035;-92
2021/09/20 03:03:01;;;;;;;0.00;0.00;;;12.10;99.90;;;;;;4999339;28;20049;-91
2021/09/20 03:05:28;;;;;;;0.10;0.10;;;12.10;99.90;;;;;;4999013;28;20034;-91
2021/09/20 03:07:55;;;;;;;0.00;0.00;;;12.10;99.90;;;;;;4998941;28;20037;-91
2021/09/20 03:10:22;;;;;;;0.00;0.00;;;12.10;99.90;;;;;;4999488;28;20038;-91
2021/09/20 03:12:48;;;;;;;0.00;0.00;;;12.10;99.90;;;;;;4999545;28;20037;-91
2021/09/20 03:15:15;;;;;;;0.00;0.00;;;12.10;99.90;;;;;;5015128;28;20041;-92
2021/09/20 03:17:42;;;;;;;0.00;0.00;;;12.00;99.90;;;;;;4998829;28;20140;-91
2021/09/20 03:20:09;;;;;;;0.00;0.00;;;12.10;99.90;;;;;;4983035;28;20042;-92
2021/09/20 03:22:37;;;;;;;0.08;0.08;;;12.10;99.90;;;;;;5015070;28;20133;-91
2021/09/20 03:25:05;;;;;;;0.00;0.00;;;12.10;99.90;;;;;;4998920;28;20048;-91
2021/09/20 03:27:31;;;;;;;0.00;0.00;;;12.10;99.90;;;;;;5014812;28;20516;-91
2021/09/20 03:29:58;;;;;;;0.00;0.00;;;12.10;99.90;;;;;;4979582;28;20070;-91
2021/09/20 03:32:25;;;;;;;0.10;0.10;;;12.10;99.90;;;;;;4982537;28;20042;-92
2021/09/20 03:34:52;;;;;;;0.00;0.00;;;12.10;99.90;;;;;;4995649;28;20042;-92
2021/09/20 03:37:19;;;;;;;0.08;0.08;;;12.10;99.90;;;;;;4997163;28;20478;-91
2021/09/20 03:39:45;;;;;;;0.00;0.00;;;12.10;99.90;;;;;;5012779;28;20049;-92
2021/09/20 03:42:12;;;;;;;0.00;0.00;;;12.10;99.90;;;;;;5036742;28;20041;-92
2021/09/20 03:44:39;;;;;;;0.00;0.00;;;12.10;99.90;;;;;;5022141;28;20111;-92
2021/09/20 03:47:06;;;;;;;0.20;0.15;;;12.10;99.90;;;;;;5038599;28;20041;-91
2021/09/20 03:49:33;;;;;;;0.10;0.10;;;12.10;99.90;;;;;;5021773;28;20049;-91
2021/09/20 03:52:00;;;;;;;0.00;0.00;;;12.10;99.90;;;;;;5022240;28;20041;-91
2021/09/20 03:54:27;;;;;;;0.00;0.00;;;12.00;99.90;;;;;;5038127;28;20048;-91
2021/09/20 03:56:54;;;;;;;0.00;0.00;;;12.00;99.90;;;;;;5006100;28;20045;-92
2021/09/20 03:59:20;;;;;;;0.03;0.03;;;12.00;99.90;;;;;;5021746;28;20045;-91
2021/09/20 04:01:47;;;;;;;0.00;0.00;;;12.10;99.90;;;;;;5038537;28;20099;-92
2021/09/20 04:04:14;;;;;;;0.03;0.03;;;12.10;99.90;;;;;;5005753;28;20037;-91
2021/09/20 04:06:41;;;;;;;0.00;0.00;;;12.00;99.90;;;;;;5021908;28;20091;-91
2021/09/20 04:09:08;;;;;;;0.00;0.00;;;12.00;99.90;;;;;;5006283;28;20042;-91
2021/09/20 04:11:40;;;;;;;0.00;0.00;;;12.10;99.90;;;;;;5006013;28;20041;-91
2021/09/20 04:14:08;;;;;;;0.05;0.05;;;12.00;99.90;;;;;;5007598;28;20049;-91
2021/09/20 04:16:35;;;;;;;0.00;0.00;;;12.10;99.90;;;;;;5021614;28;20067;-92
2021/09/20 04:19:02;;;;;;;0.00;0.00;;;12.10;99.90;;;;;;5022017;28;20041;-91
2021/09/20 04:21:29;;;;;;;0.00;0.00;;;12.00;99.90;;;;;;5037824;28;20041;-92
2021/09/20 04:23:55;;;;;;;0.00;0.00;;;12.00;99.90;;;;;;5022140;28;20069;-91
2021/09/20 04:26:22;;;;;;;0.00;0.00;;;12.00;99.90;;;;;;5005427;28;20045;-91
2021/09/20 04:28:49;;;;;;;0.00;0.00;;;12.00;99.90;;;;;;5021527;28;20068;-92
2021/09/20 04:31:15;;;;;;;0.00;0.00;;;12.00;99.90;;;;;;5021665;28;20045;-92
2021/09/20 04:33:42;;;;;;;0.10;0.10;;;12.00;99.90;;;;;;5021250;28;20041;-92
2021/09/20 04:36:09;;;;;;;0.00;0.00;;;12.10;99.90;;;;;;5021515;28;20088;-91
2021/09/20 04:38:36;;;;;;;0.00;0.00;;;12.00;99.90;;;;;;5004703;28;20100;-91
2021/09/20 04:41:02;;;;;;;0.00;0.00;;;12.00;99.90;;;;;;5021376;28;20524;-91
2021/09/20 04:43:29;;;;;;;0.00;0.00;;;12.00;99.90;;;;;;5037347;28;20042;-91
2021/09/20 04:45:56;;;;;;;0.00;0.00;;;12.00;99.90;;;;;;5005915;28;20485;-91
2021/09/20 04:48:23;;;;;;;0.00;0.00;;;12.00;99.90;;;;;;5020676;28;20073;-91
2021/09/20 04:50:52;;;;;;;0.00;0.00;;;12.00;99.90;;;;;;5037581;28;20397;-91
2021/09/20 04:53:19;;;;;;;0.00;0.00;;;12.00;99.90;;;;;;5020976;28;20037;-91
2021/09/20 04:55:47;;;;;;;0.00;0.00;;;12.00;99.90;;;;;;5004879;28;20500;-91
2021/09/20 04:58:15;;;;;;;0.00;0.00;;;12.00;99.90;;;;;;5021121;28;20378;-91
2021/09/20 05:00:42;;;;;;;0.10;0.10;;;12.10;99.90;;;;;;5020573;28;20103;-91
2021/09/20 05:03:09;;;;;;;0.00;0.00;;;12.00;99.90;;;;;;5020672;28;20045;-91
2021/09/20 05:05:36;;;;;;;0.00;0.00;;;12.00;99.90;;;;;;5021825;28;20033;-92
2021/09/20 05:08:03;;;;;;;0.13;0.13;;;12.00;99.90;;;;;;5037284;28;20152;-92
2021/09/20 05:10:31;;;;;;;0.00;0.00;;;12.00;99.90;;;;;;5004207;28;20099;-92
2021/09/20 05:12:58;;;;;;;0.05;0.05;;;12.00;99.90;;;;;;5020389;28;20485;-92
2021/09/20 05:15:24;;;;;;;0.00;0.00;;;12.00;99.90;;;;;;5020822;28;20107;-92
2021/09/20 05:17:51;;;;;;;0.00;0.00;;;12.00;99.90;;;;;;5020053;28;20049;-92
2021/09/20 05:20:21;;;;;;;0.00;0.00;;;12.00;99.90;;;;;;5004388;28;20030;-92
2021/09/20 05:22:49;;;;;;;0.15;0.10;;;12.00;99.90;;;;;;5004670;28;20046;-92
2021/09/20 05:25:17;;;;;;;0.10;0.10;;;12.40;99.90;;;;;;5036375;28;20041;-93
2021/09/20 05:27:45;;;;;;;0.05;0.05;;;12.00;99.90;;;;;;5019600;28;20030;-91
2021/09/20 05:30:12;;;;;;;0.00;0.00;;;12.00;99.90;;;;;;5037841;28;20072;-93
2021/09/20 05:32:40;;;;;;;0.00;0.00;;;12.00;99.90;;;;;;5037560;28;20090;-92
2021/09/20 05:35:11;;;;;;;0.00;0.00;;;12.00;99.90;;;;;;5036545;28;20049;-91
2021/09/20 05:37:38;;;;;;;0.10;0.10;;;12.00;99.90;;;;;;5019933;28;20102;-93
2021/09/20 05:40:06;;;;;;;0.05;0.05;;;12.00;99.90;;;;;;5036114;28;20060;-92
2021/09/20 05:42:33;;;;;;;0.10;0.10;;;12.00;99.90;;;;;;5036177;28;20046;-92
2021/09/20 05:45:00;;;;;;;0.00;0.00;;;12.00;99.90;;;;;;5035884;28;20045;-91
2021/09/20 05:47:26;;;;;;;0.00;0.00;;;12.00;99.90;;;;;;5004614;28;20040;-92
2021/09/20 05:50:13;;;;;;;0.00;0.00;;;12.00;99.90;;;;;;5036604;28;20045;-96
2021/09/20 05:52:43;;;;;;;0.00;0.00;;;12.00;99.90;;;;;;5037912;28;20482;-96
2021/09/20 05:55:33;;;;;;;0.10;0.10;;;12.00;99.90;;;;;;5038446;28;20091;-96
2021/09/20 05:58:03;;;;;;;0.00;0.00;;;12.10;99.90;;;;;;5022575;28;20041;-95
2021/09/20 06:00:30;;;;;;;0.20;0.20;;;12.10;99.90;;;;;;5035726;28;20045;-94
2021/09/20 06:02:57;;;;;;;0.10;0.10;;;12.10;99.90;;;;;;5035652;28;20389;-92
2021/09/20 06:05:24;;;;;;;0.00;0.00;;;12.10;99.90;;;;;;5048148;28;20033;-92
2021/09/20 06:07:51;;;;;;;0.00;0.00;;;12.10;99.90;;;;;;5019474;28;20040;-93
2021/09/20 06:10:18;;;;;;;0.00;0.00;;;12.20;99.90;;;;;;5035902;28;20485;-96
2021/09/20 06:12:46;;;;;;;0.00;0.00;;;12.20;99.90;;;;;;5035654;28;20081;-92
2021/09/20 06:15:13;;;;;;;0.00;0.00;;;12.20;99.90;;;;;;5037069;28;20042;-94
2021/09/20 06:17:41;;;;;;;0.00;0.00;;;12.20;99.90;;;;;;5035918;28;20057;-95
2021/09/20 06:20:09;;;;;;;0.00;0.00;;;12.20;99.90;;;;;;5020077;28;20045;-94
2021/09/20 06:22:36;;;;;;;0.10;0.10;;;12.30;99.90;;;;;;5051830;28;20038;-93
2021/09/20 06:25:04;;;;;;;0.00;0.00;;;12.30;99.90;;;;;;5035980;28;20041;-94
2021/09/20 06:27:31;;;;;;;0.00;0.00;;;12.30;99.90;;;;;;5051729;28;20042;-94
2021/09/20 06:29:58;;;;;;;0.10;0.10;;;12.30;99.90;;;;;;5035428;28;20047;-93
2021/09/20 06:32:25;;;;;;;0.00;0.00;;;12.30;99.90;;;;;;5035900;28;20045;-93
2021/09/20 06:34:51;;;;;;;0.00;0.00;;;12.30;99.90;;;;;;5014292;28;20099;-93
2021/09/20 06:37:18;;;;;;;0.08;0.08;;;12.30;99.90;;;;;;5018767;28;20375;-94
2021/09/20 06:39:45;;;;;;;0.00;0.00;;;12.40;99.90;;;;;;4986288;28;20194;-93
2021/09/20 06:42:12;;;;;;;0.05;0.05;;;12.40;99.90;;;;;;5013953;28;20037;-96
2021/09/20 06:44:39;;;;;;;0.00;0.00;;;12.40;99.90;;;;;;5017120;28;20169;-95
2021/09/20 06:47:07;;;;;;;0.00;0.00;;;12.40;99.90;;;;;;5017767;28;20462;-92
2021/09/20 06:49:35;;;;;;;0.00;0.00;;;12.40;99.90;;;;;;5019359;28;20038;-93
2021/09/20 06:52:12;;;;;;;0.00;0.00;;;12.50;99.90;;;;;;5019071;28;20075;-91
2021/09/20 06:54:39;;;;;;;0.00;0.00;;;12.50;99.90;;;;;;5036146;28;20041;-91
2021/09/20 06:57:06;;;;;;;0.10;0.10;;;12.50;99.90;;;;;;5035240;28;20048;-94
2021/09/20 06:59:34;;;;;;;0.13;0.10;;;12.60;99.90;;;;;;5027244;28;20041;-96
2021/09/20 07:02:11;;;;;;;0.00;0.00;;;12.60;99.90;;;;;;5015485;28;20053;-93
2021/09/20 07:04:38;;;;;;;0.00;0.00;;;12.60;99.90;;;;;;5015662;28;20559;-94
2021/09/20 07:07:05;;;;;;;0.00;0.00;;;12.60;99.90;;;;;;5015608;28;20085;-91
2021/09/20 07:09:32;;;;;;;0.00;0.00;;;12.70;99.90;;;;;;5015311;28;20041;-93
2021/09/20 07:11:58;;;;;;;0.00;0.00;;;12.70;99.90;;;;;;5015047;28;20042;-92
2021/09/20 07:14:25;;;;;;;0.00;0.00;;;12.60;99.90;;;;;;5014286;28;20045;-91
2021/09/20 07:16:52;;;;;;;0.00;0.00;;;12.70;99.90;;;;;;5014754;28;20042;-91
2021/09/20 07:19:19;;;;;;;0.00;0.00;;;12.70;99.90;;;;;;5015803;28;20042;-90
2021/09/20 07:21:45;;;;;;;0.00;0.00;;;12.70;99.90;;;;;;5015291;28;20042;-93
2021/09/20 07:24:12;;;;;;;0.10;0.10;;;12.80;99.90;;;;;;5015142;28;20041;-94
2021/09/20 07:26:39;;;;;;;0.00;0.00;;;12.80;99.90;;;;;;5015678;28;20548;-93
2021/09/20 07:29:07;;;;;;;0.00;0.00;;;12.70;99.90;;;;;;5015350;28;20038;-95
2021/09/20 07:31:34;;;;;;;0.10;0.10;;;12.80;99.90;;;;;;5015319;28;20038;-94
2021/09/20 07:34:01;;;;;;;0.00;0.00;;;12.80;99.90;;;;;;5015248;28;20050;-94
2021/09/20 07:36:28;;;;;;;0.00;0.00;;;12.80;99.90;;;;;;4995765;28;20093;-94
2021/09/20 07:38:55;;;;;;;0.00;0.00;;;12.90;99.90;;;;;;5016216;28;20050;-94
2021/09/20 07:41:22;;;;;;;0.00;0.00;;;12.90;99.90;;;;;;5031817;28;20051;-94
2021/09/20 07:43:49;;;;;;;0.10;0.10;;;12.90;99.90;;;;;;5015057;28;20184;-94
2021/09/20 07:46:19;;;;;;;0.00;0.00;;;12.90;99.90;;;;;;4999265;28;20441;-94
2021/09/20 07:48:46;;;;;;;0.00;0.00;;;13.00;99.90;;;;;;5014404;28;20208;-94
2021/09/20 07:51:13;;;;;;;0.00;0.00;;;13.00;99.90;;;;;;5031596;28;20149;-94
2021/09/20 07:53:40;;;;;;;0.10;0.10;;;13.00;99.90;;;;;;5031324;28;20037;-94
2021/09/20 07:56:07;;;;;;;0.00;0.00;;;13.10;99.90;;;;;;5030911;28;20042;-93
2021/09/20 07:58:34;;;;;;;0.00;0.00;;;13.10;99.90;;;;;;5015617;28;20041;-93
2021/09/20 08:01:00;;;;;;;0.20;0.10;;;13.20;99.90;;;;;;5034294;28;20042;-93
2021/09/20 08:03:29;;;;;;;0.00;0.00;;;13.20;99.90;;;;;;5034929;28;20129;-94
2021/09/20 08:05:56;;;;;;;0.00;0.00;;;13.30;99.90;;;;;;5034273;28;20041;-95
2021/09/20 08:08:23;;;;;;;0.00;0.00;;;13.30;99.90;;;;;;5035263;28;20466;-96
2021/09/20 08:10:50;;;;;;;0.00;0.00;;;13.40;99.90;;;;;;5017957;28;20080;-96
2021/09/20 08:13:17;;;;;;;0.00;0.00;;;13.50;99.90;;;;;;5036084;28;20037;-96
2021/09/20 08:15:45;;;;;;;0.10;0.10;;;13.60;99.90;;;;;;5035631;28;20041;-96
2021/09/20 08:18:14;;;;;;;0.10;0.10;;;13.70;99.90;;;;;;5035366;28;20079;-92
2021/09/20 08:20:41;;;;;;;0.00;0.00;;;13.80;99.90;;;;;;5019048;28;20049;-93
2021/09/20 08:23:10;;;;;;;0.00;0.00;;;13.80;99.90;;;;;;5019468;28;20037;-96
2021/09/20 08:25:36;;;;;;;0.00;0.00;;;13.80;99.90;;;;;;5019091;28;20192;-92
2021/09/20 08:28:04;;;;;;;0.00;0.00;;;13.80;99.90;;;;;;5018762;28;20088;-96
2021/09/20 08:30:31;;;;;;;0.10;0.10;;;13.80;99.90;;;;;;5038107;28;20049;-92
2021/09/20 08:32:58;;;;;;;0.00;0.00;;;13.90;99.90;;;;;;5021971;28;20041;-96
2021/09/20 08:35:24;;;;;;;0.00;0.00;;;14.00;99.90;;;;;;5006039;28;20041;-96
2021/09/20 08:37:52;;;;;;;0.10;0.10;;;14.00;99.90;;;;;;5038655;28;20072;-94
2021/09/20 08:40:19;;;;;;;0.00;0.00;;;14.10;99.90;;;;;;5037659;28;20053;-94
2021/09/20 08:42:46;;;;;;;0.10;0.10;;;14.10;99.90;;;;;;5021325;28;20111;-91
2021/09/20 08:45:17;;;;;;;0.00;0.00;;;14.20;99.90;;;;;;5037702;28;20045;-95
2021/09/20 08:47:46;;;;;;;0.00;0.00;;;14.20;99.90;;;;;;5037591;28;20038;-96
2021/09/20 08:50:16;;;;;;;0.00;0.00;;;14.20;99.90;;;;;;5037697;28;20084;-94
2021/09/20 08:52:43;;;;;;;0.00;0.00;;;14.20;99.90;;;;;;5037837;28;20128;-96
2021/09/20 08:55:12;;;;;;;0.00;0.00;;;14.30;99.90;;;;;;5021178;28;20064;-94
2021/09/20 08:57:38;;;;;;;0.00;0.00;;;14.10;99.90;;;;;;5037299;28;20504;-95
2021/09/20 09:00:08;;;;;;;0.00;0.00;;;14.30;99.90;;;;;;5005718;28;20076;-92
2021/09/20 09:02:34;;;;;;;0.08;0.08;;;14.40;99.90;;;;;;5037441;28;20033;-95
2021/09/20 09:05:25;;;;;;;0.03;0.03;;;14.40;99.90;;;;;;5006156;28;20052;-94
2021/09/20 09:08:06;;;;;;;0.00;0.00;;;14.50;99.90;;;;;;5038415;28;20509;-95
2021/09/20 09:10:36;;;;;;;;;;;14.50;99.90;;;;;;5037823;28;20038;-96
2021/09/20 09:13:05;;;;;;;0.00;0.00;;;14.60;99.90;;;;;;5038919;28;20372;-96
2021/09/20 09:15:32;;;;;;;0.00;0.00;;;14.70;99.90;;;;;;5038020;28;20052;-93
2021/09/20 09:18:05;;;;;;;0.17;0.10;;;14.80;99.90;;;;;;5053733;28;20041;-93
2021/09/20 09:20:34;;;;;;;0.00;0.00;;;14.80;99.90;;;;;;5021849;28;20044;-94
2021/09/20 09:23:07;;;;;;;0.10;0.10;;;14.90;99.90;;;;;;5036792;28;20076;-94
2021/09/20 09:25:48;;;;;;;0.00;0.00;;;14.90;99.90;;;;;;5036521;28;20104;-93
2021/09/20 09:28:28;;;;;;;0.00;0.00;;;15.00;99.90;;;;;;5020455;28;20041;-95
2021/09/20 09:31:01;;;;;;;0.05;0.05;;;15.00;99.90;;;;;;5036907;28;20041;-94
2021/09/20 09:33:38;;;;;;;0.17;0.10;;;15.00;99.90;;;;;;5034934;28;20041;-93
2021/09/20 09:36:05;;;;;;;0.00;0.00;;;15.00;99.90;;;;;;5036743;28;20493;-96
2021/09/20 09:38:34;;;;;;;0.00;0.00;;;15.10;99.90;;;;;;5036544;28;20043;-92
2021/09/20 09:41:03;;;;;;;0.40;0.10;;;15.10;99.90;;;;;;5035800;28;20135;-92
2021/09/20 09:43:40;;;;;;;0.10;0.10;;;15.10;99.90;;;;;;5033153;28;20525;-93
2021/09/20 09:46:23;;;;;;;0.10;0.10;;;15.10;99.90;;;;;;5049526;28;20041;-92
2021/09/20 09:48:54;;;;;;;0.00;0.00;;;15.20;99.90;;;;;;5036749;28;20505;-91
2021/09/20 09:51:21;;;;;;;0.10;0.10;;;15.50;99.90;;;;;;5036151;28;20401;-91
2021/09/20 09:53:49;;;;;;;0.00;0.00;;;15.40;99.90;;;;;;5036352;28;20420;-92
2021/09/20 09:56:18;;;;;;;0.20;0.10;;;15.50;99.90;;;;;;5037741;28;20030;-90
2021/09/20 09:59:02;;;;;;;0.30;0.00;;;15.60;99.90;;;;;;5027475;28;20420;-89
2021/09/20 10:01:48;;;;;;;0.00;0.00;;;15.60;99.90;;;;;;5035950;28;20045;-95
2021/09/20 10:07:24;;;;;;;0.00;0.00;;;15.70;99.90;;;;;;5040187;28;20511;-96
2021/09/20 10:09:52;;;;;;;0.08;0.00;;;16.00;99.90;;;;;;5037403;28;20049;-95
2021/09/20 10:12:23;;;;;;;0.00;0.00;;;16.00;99.90;;;;;;5027158;28;20041;-94
2021/09/20 10:15:00;;;;;;;0.05;0.05;;;16.10;99.90;;;;;;5051650;28;20037;-95
2021/09/20 10:17:31;;;;;;;0.05;0.05;;;16.10;99.90;;;;;;5198656;23;20047;-96
2021/09/20 10:20:03;;;;;;;0.00;0.00;;;16.10;99.90;;;;;;4980418;28;20035;-96
2021/09/20 10:22:30;;;;;;;0.32;0.20;;;16.20;99.90;;;;;;5012932;28;20097;-96
2021/09/20 11:01:26;;;;;;;0.00;0.00;;;16.40;99.90;;;;;;5066674;28;20057;-94
2021/09/20 11:03:54;;;;;;;0.00;0.00;;;16.40;99.90;;;;;;5034923;28;20355;-92
2021/09/20 11:06:23;;;;;;;0.32;0.10;;;16.50;99.90;;;;;;5052662;28;20084;-95
2021/09/20 11:08:59;;;;;;;0.40;0.28;;;16.50;99.90;;;;;;5051103;28;20060;-94
2021/09/20 11:11:42;;;;;;;0.10;0.10;;;16.50;99.90;;;;;;5035053;28;20033;-94
2021/09/20 11:14:14;;;;;;;0.00;0.00;;;16.60;99.90;;;;;;5051041;28;20092;-93
2021/09/20 11:16:49;;;;;;;0.00;0.00;;;16.50;99.90;;;;;;5051218;28;20038;-94
2021/09/20 11:19:28;;;;;;;;;;;16.70;99.90;;;;;;5051777;28;20084;-88
2021/09/20 11:22:11;;;;;;;0.00;0.00;;;16.80;99.90;;;;;;5050869;28;19917;-89
2021/09/20 11:24:45;;;;;;;0.05;0.03;;;17.00;99.90;;;;;;5051329;28;20052;-86
2021/09/20 11:37:36;;;;;;;0.00;0.00;;;17.00;99.90;;;;;;5066405;28;20057;-88
2021/09/20 11:40:05;;;;;;;0.52;0.30;;;16.90;99.90;;;;;;5056668;28;20038;-90
2021/09/20 11:42:36;;;;;;;0.10;0.10;;;16.90;99.90;;;;;;5051120;28;20080;-87
2021/09/20 11:45:17;;;;;;;0.30;0.30;;;16.80;99.90;;;;;;5034164;28;20064;-87
2021/09/20 11:47:52;;;;;;;0.68;0.20;;;16.70;99.90;;;;;;5034306;28;20045;-86
2021/09/20 11:50:24;;;;;;;;;;;16.70;99.90;;;;;;5034654;28;20041;-87
2021/09/20 11:52:57;;;;;;;0.10;0.10;;;16.70;99.90;;;;;;5033750;28;19967;-89
2021/09/20 11:55:28;;;;;;;0.10;0.10;;;16.80;99.90;;;;;;5034371;28;20073;-88
2021/09/20 11:57:57;;;;;;;0.20;0.10;;;16.70;99.90;;;;;;5034044;28;20047;-90
2021/09/20 12:00:28;;;;;;;0.08;0.08;;;16.80;99.90;;;;;;5033706;28;20440;-90
2021/09/20 12:02:57;;;;;;;0.00;0.00;;;16.80;99.90;;;;;;5050089;28;20455;-89
2021/09/20 12:05:25;;;;;;;0.05;0.05;;;16.80;99.90;;;;;;5021915;28;20033;-88
2021/09/20 12:08:08;;;;;;;0.10;0.10;;;16.70;99.90;;;;;;5037321;28;20492;-87
2021/09/20 12:10:43;;;;;;;0.20;0.20;;;16.70;99.90;;;;;;5026224;28;20455;-85
2021/09/20 12:13:13;;;;;;;0.38;0.22;;;16.70;99.90;;;;;;5036941;28;20038;-85
2021/09/20 12:15:42;;;;;;;0.30;0.10;;;16.70;99.90;;;;;;5037242;28;20041;-85
2021/09/20 12:18:23;;;;;;;0.15;0.10;;;16.70;99.90;;;;;;5053445;28;20037;-86
2021/09/20 12:20:56;;;;;;;0.10;0.10;;;16.70;99.90;;;;;;5037290;28;20088;-86
2021/09/20 12:23:29;;;;;;;0.17;0.17;;;16.70;99.90;;;;;;5037621;28;20040;-87
2021/09/20 12:26:07;;;;;;;0.55;0.20;;;16.70;99.90;;;;;;5045636;28;20040;-89
2021/09/20 12:28:38;;;;;;;0.10;0.10;;;16.70;99.90;;;;;;5046264;28;20048;-89
2021/09/20 12:31:04;;;;;;;0.10;0.10;;;16.70;99.90;;;;;;5039656;28;20080;-87
2021/09/20 12:33:59;;;;;;;0.10;0.10;;;16.70;99.90;;;;;;5038044;28;20142;-88
2021/09/20 12:36:41;;;;;;;0.25;0.25;;;16.70;99.90;;;;;;5034020;28;20049;-87
2021/09/20 12:39:18;;;;;;;0.10;0.10;;;16.80;99.90;;;;;;5037108;28;20400;-87
2021/09/20 12:41:57;;;;;;;0.08;0.08;;;16.80;99.90;;;;;;5021536;28;20037;-91
2021/09/20 12:44:46;;;;;;;0.00;0.00;;;16.80;99.90;;;;;;5038009;28;20285;-93
2021/09/20 12:47:15;;;;;;;0.10;0.10;;;16.90;99.90;;;;;;5037574;28;20037;-90
2021/09/20 12:49:55;;;;;;;0.38;0.20;;;16.80;99.90;;;;;;5037266;28;20124;-90
2021/09/20 12:52:25;;;;;;;0.30;0.20;;;16.80;99.90;;;;;;5037647;28;20125;-90
2021/09/20 12:54:53;;;;;;;0.17;0.17;;;16.80;99.90;;;;;;5052558;28;20048;-89
2021/09/20 12:57:23;;;;;;;0.10;0.10;;;16.80;99.90;;;;;;5036522;28;20096;-90
2021/09/20 13:00:08;;;;;;;0.00;0.00;;;16.70;99.90;;;;;;5037146;28;20485;-90
2021/09/20 13:02:38;;;;;;;0.10;0.10;;;16.70;99.90;;;;;;5048308;28;20033;-94
2021/09/20 13:05:07;;;;;;;0.10;0.03;;;16.70;99.90;;;;;;5039343;28;20280;-90
2021/09/20 13:07:33;;;;;;;0.10;0.10;;;16.80;99.90;;;;;;5056903;28;20033;-90
2021/09/20 13:10:10;;;;;;;0.22;0.10;;;16.70;99.90;;;;;;5056361;28;20041;-89
2021/09/20 13:12:46;;;;;;;0.80;0.17;;;16.70;99.90;;;;;;5047633;28;20125;-93
2021/09/20 13:15:18;;;;;;;0.43;0.15;;;16.80;99.90;;;;;;5041496;28;20041;-92
2021/09/20 13:17:54;;;;;;;0.15;0.10;;;16.80;99.90;;;;;;5037344;28;20088;-94
2021/09/20 13:20:25;;;;;;;;;;;16.80;99.90;;;;;;5037187;28;20100;-91
2021/09/20 13:23:07;;;;;;;0.08;0.08;;;16.70;99.90;;;;;;5037077;28;20008;-92
2021/09/20 13:25:38;;;;;;;0.00;0.00;;;16.70;99.90;;;;;;5037113;28;20037;-94
2021/09/20 13:28:42;;;;;;;0.03;0.03;;;16.60;99.90;;;;;;5037078;28;20125;-94
2021/09/20 13:53:05;;;;;;;0.10;0.10;;;16.50;99.90;;;;;;4988038;28;20594;-96
2021/09/20 13:55:33;;;;;;;0.00;0.00;;;16.50;99.70;;;;;;4957733;29;20065;-94
2021/09/20 13:58:01;;;;;;;0.10;0.10;;;16.40;99.90;;;;;;4969786;28;20050;-93
2021/09/20 14:00:29;;;;;;;0.28;0.22;;;16.50;99.90;;;;;;4984427;28;20509;-93
2021/09/20 14:02:56;;;;;;;0.17;0.10;;;16.50;99.90;;;;;;4983645;29;20609;-93
2021/09/20 14:05:23;;;;;;;0.13;0.13;;;16.50;99.90;;;;;;4987606;28;20038;-92
2021/09/20 14:07:52;;;;;;;0.00;0.00;;;16.50;99.90;;;;;;5020069;28;20052;-94
2021/09/20 14:10:20;;;;;;;0.47;0.30;;;16.60;99.90;;;;;;5036150;28;20385;-91